Time;durP1;ratioP1;P1;durP2;ratioP2;P2;SDS_P1;SDS_P2;PMS_P1;PMS_P2;Temp;Humidity;BMP_temperature;BMP_pressure;BME280_temperature;BME280_humidity;BME280_pressure;Samples;Min_cycle;Max_cycle;Signal;HPM_P1;HPM_P2
2021/09/06 00:01:53;;;;;;;61.50;55.77;;;;;;;16.92;100.00;102301.00;1971852;73;32991;-75
2021/09/06 00:07:18;;;;;;;63.00;56.67;;;;;;;16.88;100.00;102297.11;1972168;73;31524;-75
2021/09/06 00:12:45;;;;;;;64.00;57.97;;;;;;;16.73;100.00;102303.09;1971920;73;30995;-75
2021/09/06 00:18:11;;;;;;;61.97;56.37;;;;;;;16.82;100.00;102297.70;1972214;72;30930;-75
2021/09/06 00:23:37;;;;;;;64.00;58.07;;;;;;;16.66;100.00;102305.96;1971919;73;32912;-75
2021/09/06 00:29:02;;;;;;;62.63;56.57;;;;;;;16.67;100.00;102306.24;1971934;73;31035;-75
2021/09/06 00:34:26;;;;;;;61.97;56.00;;;;;;;16.70;100.00;102303.69;1972148;73;32870;-74
2021/09/06 00:39:51;;;;;;;61.27;55.67;;;;;;;16.56;100.00;102300.41;1971950;73;32945;-74
2021/09/06 00:45:15;;;;;;;63.47;57.33;;;;;;;16.62;100.00;102299.25;1971979;73;30935;-75
2021/09/06 00:50:40;;;;;;;64.40;58.23;;;;;;;16.73;100.00;102296.08;1971923;72;30994;-74
2021/09/06 00:56:06;;;;;;;62.03;56.30;;;;;;;16.35;100.00;102303.30;1972035;73;31004;-76
2021/09/06 01:01:31;;;;;;;64.13;58.03;;;;;;;16.31;100.00;102305.02;1971969;73;32965;-75
2021/09/06 01:06:56;;;;;;;66.57;60.23;;;;;;;16.35;100.00;102303.86;1972158;73;32877;-75
2021/09/06 01:12:21;;;;;;;63.50;57.40;;;;;;;16.31;100.00;102313.98;1972184;73;32981;-74
2021/09/06 01:17:46;;;;;;;65.27;59.07;;;;;;;16.21;100.00;102310.69;1971864;73;32993;-75
2021/09/06 01:23:11;;;;;;;63.40;57.50;;;;;;;16.21;100.00;102305.08;1971903;73;32975;-74
2021/09/06 01:28:42;;;;;;;61.97;55.73;;;;;;;16.39;100.00;102317.02;1972003;72;30996;-74
2021/09/06 01:34:08;;;;;;;67.77;60.87;;;;;;;16.33;100.00;102302.77;1971980;73;30943;-74
2021/09/06 01:39:40;;;;;;;65.60;59.10;;;;;;;16.24;100.00;102309.27;1972189;73;32889;-75
2021/09/06 01:45:06;;;;;;;64.73;58.47;;;;;;;16.30;100.00;102308.94;1972098;73;32930;-76
2021/09/06 01:50:30;;;;;;;59.90;54.33;;;;;;;16.15;100.00;102317.44;1972178;73;31497;-76
2021/09/06 01:55:55;;;;;;;64.63;58.50;;;;;;;16.29;100.00;102319.06;1971946;73;33003;-75
2021/09/06 02:01:20;;;;;;;66.20;59.37;;;;;;;16.23;100.00;102308.42;1972160;73;32950;-74
2021/09/06 02:06:44;;;;;;;73.13;65.70;;;;;;;16.26;100.00;102306.99;1971967;73;30958;-76
2021/09/06 02:12:15;;;;;;;68.50;62.10;;;;;;;16.38;100.00;102308.36;1972138;73;33547;-75
2021/09/06 02:17:39;;;;;;;68.83;62.07;;;;;;;16.26;100.00;102302.78;1972115;73;32987;-75
2021/09/06 02:23:05;;;;;;;56.00;50.93;;;;;;;15.97;100.00;102291.99;1959536;71;32906;-75
2021/09/06 02:28:30;;;;;;;61.07;55.43;;;;;;;15.92;100.00;102300.70;1972188;73;33512;-76
2021/09/06 02:33:54;;;;;;;60.00;54.37;;;;;;;15.96;100.00;102302.95;1971920;73;33017;-75
2021/09/06 02:39:20;;;;;;;61.43;55.80;;;;;;;15.96;100.00;102293.95;1972016;73;32948;-74
2021/09/06 02:44:44;;;;;;;73.57;64.93;;;;;;;15.99;100.00;102301.81;1971937;73;32896;-74
2021/09/06 02:50:11;;;;;;;69.23;62.17;;;;;;;16.19;100.00;102300.31;1972151;73;33563;-74
2021/09/06 02:55:35;;;;;;;67.37;60.30;;;;;;;16.09;100.00;102298.13;1972087;73;33475;-74
2021/09/06 03:01:00;;;;;;;67.83;60.93;;;;;;;16.04;100.00;102298.16;1972174;73;33433;-74
2021/09/06 03:06:24;;;;;;;71.30;63.80;;;;;;;16.10;100.00;102285.21;1971956;73;32917;-76
2021/09/06 03:11:49;;;;;;;70.67;63.03;;;;;;;16.08;100.00;102295.05;1971975;73;33011;-75
2021/09/06 03:17:13;;;;;;;72.93;65.07;;;;;;;16.08;100.00;102290.28;1971898;73;33021;-75
2021/09/06 03:22:38;;;;;;;71.70;64.33;;;;;;;15.83;100.00;102284.19;1972071;73;33045;-74
2021/09/06 03:28:06;;;;;;;75.40;67.40;;;;;;;15.80;100.00;102288.13;1971948;73;32976;-75
2021/09/06 03:33:30;;;;;;;71.87;64.53;;;;;;;15.77;100.00;102273.30;1972142;73;33439;-74
2021/09/06 03:39:01;;;;;;;79.33;70.87;;;;;;;15.77;100.00;102274.70;1972170;73;32978;-75
2021/09/06 03:44:25;;;;;;;75.23;67.27;;;;;;;15.75;100.00;102269.93;1971956;72;32989;-75
2021/09/06 03:49:50;;;;;;;73.37;65.67;;;;;;;15.64;100.00;102271.10;1972131;73;33394;-75
2021/09/06 03:55:15;;;;;;;72.33;64.70;;;;;;;15.46;100.00;102271.11;1972172;73;33412;-76
2021/09/06 04:00:59;;;;;;;73.50;65.63;;;;;;;15.53;100.00;102285.72;1963152;70;39717;-76
2021/09/06 04:06:23;;;;;;;71.10;63.50;;;;;;;15.46;100.00;102283.72;1971998;73;30969;-74
2021/09/06 04:11:48;;;;;;;73.13;65.60;;;;;;;15.42;100.00;102275.05;1971961;73;30974;-75
2021/09/06 04:17:15;;;;;;;76.67;68.33;;;;;;;15.52;100.00;102271.42;1972196;73;33478;-75
2021/09/06 04:22:59;;;;;;;72.87;65.07;;;;;;;15.43;100.00;102278.69;1987654;71;33005;-77
2021/09/06 04:28:23;;;;;;;72.43;64.53;;;;;;;15.41;100.00;102276.16;1972152;73;33622;-75
2021/09/06 04:33:48;;;;;;;74.17;66.23;;;;;;;15.36;100.00;102287.36;1971884;73;32947;-75
2021/09/06 04:39:12;;;;;;;73.43;65.43;;;;;;;15.38;100.00;102281.49;1971902;73;32994;-74
2021/09/06 04:44:37;;;;;;;66.10;59.30;;;;;;;15.25;100.00;102287.67;1971919;73;32923;-75
2021/09/06 04:50:02;;;;;;;66.87;59.97;;;;;;;15.08;100.00;102287.97;1972170;73;33007;-76
2021/09/06 04:55:26;;;;;;;69.33;60.47;;;;;;;15.19;100.00;102285.42;1971879;73;33021;-74
2021/09/06 05:00:51;;;;;;;70.60;62.77;;;;;;;15.20;100.00;102284.31;1972198;73;33371;-75
2021/09/06 05:06:15;;;;;;;71.93;63.90;;;;;;;15.26;100.00;102286.55;1971886;73;33020;-75
2021/09/06 05:11:40;;;;;;;71.73;64.33;;;;;;;15.37;100.00;102294.66;1971948;73;32914;-75
2021/09/06 05:17:05;;;;;;;67.87;60.80;;;;;;;14.97;100.00;102287.70;1971919;73;32875;-75
2021/09/06 05:22:29;;;;;;;64.73;58.37;;;;;;;14.91;100.00;102288.25;1962569;71;32916;-74
2021/09/06 05:27:54;;;;;;;69.20;62.07;;;;;;;14.94;100.00;102300.27;1972145;72;33370;-75
2021/09/06 05:33:19;;;;;;;65.53;58.90;;;;;;;14.89;100.00;102300.27;1971992;73;32992;-75
2021/09/06 05:38:45;;;;;;;61.83;55.93;;;;;;;14.96;100.00;102304.20;1971897;72;32991;-75
2021/09/06 05:44:10;;;;;;;58.63;53.43;;;;;;;14.87;100.00;102313.70;1971939;73;32950;-76
2021/09/06 05:49:34;;;;;;;60.80;54.77;;;;;;;14.87;100.00;102312.87;1972117;72;32952;-77
2021/09/06 05:54:59;;;;;;;63.37;57.27;;;;;;;14.98;100.00;102315.38;1972024;73;32950;-75
2021/09/06 06:00:24;;;;;;;61.30;55.80;;;;;;;15.08;100.00;102310.91;1971876;72;32979;-73
2021/09/06 06:05:54;;;;;;;66.50;60.33;;;;;;;15.24;100.00;102316.78;1972106;73;33545;-73
2021/09/06 06:11:19;;;;;;;63.57;57.83;;;;;;;15.22;100.00;102331.08;1972164;73;33024;-76
2021/09/06 06:16:43;;;;;;;69.03;62.13;;;;;;;15.28;100.00;102328.53;1972084;73;32997;-76
2021/09/06 06:22:08;;;;;;;71.13;64.27;;;;;;;15.44;100.00;102339.19;1971871;73;32923;-73
2021/09/06 06:27:32;;;;;;;65.50;59.50;;;;;;;15.60;100.00;102343.67;1971918;73;32989;-75
2021/09/06 06:32:59;;;;;;;67.20;60.93;;;;;;;15.56;100.00;102347.31;1972108;73;32984;-73
2021/09/06 06:38:24;;;;;;;70.97;63.43;;;;;;;15.87;100.00;102348.34;1971861;73;33055;-76
2021/09/06 06:43:49;;;;;;;74.37;66.80;;;;;;;16.04;100.00;102349.45;1972019;73;31040;-75
2021/09/06 06:49:13;;;;;;;72.30;64.47;;;;;;;16.08;100.00;102349.71;1971897;73;30970;-75
2021/09/06 06:54:45;;;;;;;79.67;71.77;;;;;;;16.38;100.00;102362.20;1972167;73;31013;-81
2021/09/06 07:00:12;;;;;;;77.83;69.30;;;;;;;16.51;100.00;102356.53;1971940;73;30963;-78
2021/09/06 07:05:37;;;;;;;77.27;69.53;;;;;;;16.59;100.00;102363.81;1972079;72;33381;-80
2021/09/06 07:11:02;;;;;;;76.47;68.30;;;;;;;16.75;100.00;102363.15;1971876;72;31010;-75
2021/09/06 07:16:26;;;;;;;76.20;68.70;;;;;;;16.80;100.00;102360.32;1972138;73;33411;-77
2021/09/06 07:21:52;;;;;;;79.07;70.57;;;;;;;16.82;100.00;102353.27;1971899;73;32947;-79
2021/09/06 07:27:17;;;;;;;77.93;70.07;;;;;;;17.05;100.00;102363.51;1972398;72;31516;-83
2021/09/06 07:32:41;;;;;;;87.07;74.43;;;;;;;17.28;100.00;102358.56;1972036;73;33022;-80
2021/09/06 07:38:07;;;;;;;86.90;74.57;;;;;;;17.49;100.00;102360.06;1972168;73;31470;-74
2021/09/06 07:43:32;;;;;;;82.47;73.93;;;;;;;17.64;100.00;102366.95;1972002;73;30944;-83
2021/09/06 07:48:57;;;;;;;84.80;75.50;;;;;;;17.88;100.00;102368.41;1972306;73;31433;-80
2021/09/06 07:54:22;;;;;;;82.60;73.93;;;;;;;18.19;100.00;102380.97;1971992;73;31029;-75
2021/09/06 07:59:48;;;;;;;87.93;78.77;;;;;;;18.45;100.00;102385.72;1972201;73;31499;-76
2021/09/06 08:05:13;;;;;;;86.03;77.17;;;;;;;18.62;100.00;102379.61;1972292;73;31065;-79
2021/09/06 08:10:37;;;;;;;84.10;75.43;;;;;;;18.92;100.00;102377.77;1972092;73;30953;-79
2021/09/06 08:16:04;;;;;;;83.00;74.20;;;;;;;19.09;100.00;102390.74;1972210;73;31026;-79
2021/09/06 08:21:29;;;;;;;77.37;69.13;;;;;;;19.38;100.00;102390.55;1967804;71;31015;-81
2021/09/06 08:26:54;;;;;;;82.07;73.30;;;;;;;19.66;100.00;102388.70;1972078;73;31089;-80
2021/09/06 08:32:18;;;;;;;77.97;70.87;;;;;;;19.61;100.00;102395.84;1971951;73;31016;-82
2021/09/06 08:37:44;;;;;;;77.10;69.47;;;;;;;19.87;100.00;102405.52;1972192;73;30952;-83
2021/09/06 08:43:12;;;;;;;79.03;71.57;;;;;;;19.95;100.00;102396.91;1972123;73;31433;-80
2021/09/06 08:48:37;;;;;;;77.63;70.57;;;;;;;20.02;100.00;102390.87;1972359;73;33367;-81
2021/09/06 08:54:01;;;;;;;76.17;69.13;;;;;;;20.21;100.00;102393.01;1972437;72;31558;-80
2021/09/06 08:59:28;;;;;;;74.33;66.70;;;;;;;20.14;100.00;102382.16;1972349;73;31024;-81
2021/09/06 09:05:01;;;;;;;71.93;64.77;;;;;;;20.41;100.00;102388.38;1972163;73;31417;-74
2021/09/06 09:10:37;;;;;;;71.43;64.53;;;;;;;20.43;100.00;102398.80;1972518;72;30962;-81
2021/09/06 09:16:07;;;;;;;74.70;67.13;;;;;;;20.57;100.00;102407.27;1972450;73;30998;-81
2021/09/06 09:21:32;;;;;;;67.43;61.10;;;;;;;20.60;100.00;102412.27;1972505;73;31471;-82
2021/09/06 09:26:58;;;;;;;67.03;60.73;;;;;;;20.64;100.00;102411.33;1972301;72;30970;-81
2021/09/06 09:32:23;;;;;;;74.23;67.03;;;;;;;20.76;100.00;102410.20;1972167;73;31035;-81
2021/09/06 09:37:48;;;;;;;96.05;65.22;;;;;;;20.77;100.00;102406.81;1971929;73;31036;-81
2021/09/06 09:43:13;;;;;;;65.17;59.17;;;;;;;20.92;100.00;102404.23;1972320;73;31053;-81
2021/09/06 09:48:38;;;;;;;88.00;63.97;;;;;;;21.01;100.00;102400.91;1972254;73;30957;-80
2021/09/06 09:54:05;;;;;;;64.73;58.53;;;;;;;21.07;100.00;102399.05;1972114;73;30929;-81
2021/09/06 09:59:30;;;;;;;67.13;60.80;;;;;;;21.17;100.00;102405.92;1972075;73;31075;-80
2021/09/06 10:05:00;;;;;;;68.55;59.05;;;;;;;21.29;100.00;102396.28;1972215;73;31460;-80
2021/09/06 10:10:27;;;;;;;64.50;58.42;;;;;;;21.23;100.00;102391.90;1971990;73;30987;-80
2021/09/06 10:16:03;;;;;;;75.20;67.50;;;;;;;21.37;100.00;102379.13;1971992;73;31011;-80
2021/09/06 10:21:40;;;;;;;65.72;59.18;;;;;;;21.46;100.00;102380.03;1972044;73;31630;-85
2021/09/06 10:27:15;;;;;;;63.60;57.75;;;;;;;21.46;100.00;102370.13;1972178;73;31431;-75
2021/09/06 10:32:42;;;;;;;67.20;60.90;;;;;;;21.53;100.00;102378.98;1972238;73;31462;-79
2021/09/06 10:38:13;;;;;;;63.60;57.53;;;;;;;21.67;100.00;102387.41;1972001;73;30955;-74
2021/09/06 10:43:46;;;;;;;135.72;72.42;;;;;;;21.75;100.00;102386.61;1972040;72;30912;-79
2021/09/06 10:49:13;;;;;;;67.72;61.02;;;;;;;21.64;100.00;102380.41;1971976;72;31096;-82
2021/09/06 10:54:40;;;;;;;128.77;66.50;;;;;;;21.93;100.00;102363.53;1972423;73;31133;-78
2021/09/06 11:00:16;;;;;;;61.48;55.45;;;;;;;21.96;100.00;102365.70;1972723;73;30952;-80
2021/09/06 11:08:38;;;;;;;65.87;52.53;;;;;;;22.52;100.00;102356.41;2061411;69;31308;-82
2021/09/06 11:11:11;;;;;;;57.10;51.75;;;;;;;22.34;100.00;102365.44;2030967;71;24104;-75
2021/09/06 11:13:44;;;;;;;57.60;52.20;;;;;;;22.31;100.00;102361.86;2030919;70;24116;-73
2021/09/06 11:16:18;;;;;;;57.53;51.63;;;;;;;22.44;100.00;102358.06;2030860;71;24568;-85
2021/09/06 11:18:51;;;;;;;54.40;49.45;;;;;;;22.42;100.00;102354.72;2031003;71;24121;-83
2021/09/06 11:21:22;;;;;;;58.48;52.50;;;;;;;22.62;100.00;102344.78;2020580;71;24219;-74
2021/09/06 11:23:53;;;;;;;55.52;50.30;;;;;;;22.51;100.00;102349.91;1993767;72;24205;-85
2021/09/06 11:29:22;;;;;;;54.67;49.88;;;;;;;22.91;100.00;102338.50;1972163;73;31094;-76
2021/09/06 11:34:49;;;;;;;57.97;52.77;;;;;;;22.98;100.00;102336.83;1971949;73;30947;-72
2021/09/06 11:40:16;;;;;;;49.88;45.85;;;;;;;23.14;100.00;102341.42;1971938;73;31040;-80
2021/09/06 11:45:41;;;;;;;50.70;46.48;;;;;;;23.25;100.00;102327.73;1977391;71;30937;-82
2021/09/06 11:51:10;;;;;;;54.38;49.50;;;;;;;23.52;100.00;102324.55;1972438;73;31493;-82
2021/09/06 11:56:35;;;;;;;53.52;48.50;;;;;;;22.89;100.00;102343.07;1972044;73;31030;-80
2021/09/06 12:02:01;;;;;;;50.63;46.50;;;;;;;22.68;100.00;102340.61;1972174;73;31584;-78
2021/09/06 12:07:34;;;;;;;55.17;50.35;;;;;;;22.63;100.00;102337.34;1971942;73;30970;-80
2021/09/06 12:13:02;;;;;;;55.20;50.67;;;;;;;22.50;100.00;102336.09;1972426;73;31424;-82
2021/09/06 12:18:38;;;;;;;51.68;47.08;;;;;;;23.24;100.00;102339.65;1972394;72;31015;-82
2021/09/06 12:24:05;;;;;;;47.20;43.15;;;;;;;23.53;100.00;102345.47;1972008;73;31086;-73
2021/09/06 12:29:38;;;;;;;48.23;44.23;;;;;;;23.15;100.00;102346.75;1972193;73;31524;-71
2021/09/06 12:35:08;;;;;;;47.78;43.70;;;;;;;23.48;100.00;102338.58;1972593;73;31428;-80
2021/09/06 12:40:36;;;;;;;45.28;41.70;;;;;;;23.80;100.00;102327.20;1972234;73;31437;-74
2021/09/06 12:46:01;;;;;;;45.25;41.83;;;;;;;23.66;100.00;102327.19;1972432;73;31011;-81
2021/09/06 12:51:26;;;;;;;46.48;42.78;;;;;;;24.19;100.00;102330.33;1972068;72;31089;-80
2021/09/06 12:56:52;;;;;;;42.75;39.33;;;;;;;24.41;100.00;102326.36;1972604;73;31653;-80
2021/09/06 13:02:17;;;;;;;43.98;40.70;;;;;;;24.57;100.00;102310.95;1971968;73;31090;-74
2021/09/06 13:07:41;;;;;;;46.13;42.58;;;;;;;24.42;100.00;102299.62;1972074;73;31058;-82
2021/09/06 13:13:09;;;;;;;46.37;42.55;;;;;;;23.82;100.00;102296.50;1972178;73;31481;-74
2021/09/06 13:18:45;;;;;;;48.20;44.35;;;;;;;23.28;100.00;102300.11;1972160;73;30975;-81
2021/09/06 13:24:09;;;;;;;49.10;45.17;;;;;;;23.12;100.00;102296.39;1971970;73;31159;-79
2021/09/06 13:29:26;;;;;;;49.77;46.23;;;;;;;23.09;100.00;102287.73;1977886;72;30709;-81
2021/09/06 13:34:52;;;;;;;48.58;44.90;;;;;;;22.95;100.00;102292.73;1972003;73;30969;-86
2021/09/06 13:40:16;;;;;;;48.48;44.35;;;;;;;23.00;100.00;102288.31;1966364;73;31127;-80
2021/09/06 13:45:41;;;;;;;48.87;45.23;;;;;;;22.95;100.00;102290.73;1972266;73;31574;-78
2021/09/06 13:51:06;;;;;;;46.53;43.15;;;;;;;22.97;100.00;102281.91;1972188;73;31481;-81
2021/09/06 13:56:35;;;;;;;46.60;43.05;;;;;;;22.92;100.00;102277.25;1972203;73;31617;-79
2021/09/06 14:01:59;;;;;;;45.25;41.85;;;;;;;22.87;100.00;102278.83;1938486;74;31045;-79
2021/09/06 14:07:24;;;;;;;45.95;42.55;;;;;;;22.90;100.00;102273.06;1972180;73;30968;-73
2021/09/06 14:12:49;;;;;;;45.48;42.38;;;;;;;22.84;100.00;102277.25;1971958;73;30981;-79
2021/09/06 14:18:15;;;;;;;43.92;40.92;;;;;;;23.05;100.00;102266.89;1971955;73;31031;-73
2021/09/06 14:23:38;;;;;;;43.15;40.35;;;;;;;22.89;100.00;102273.64;1972229;73;31456;-80
2021/09/06 14:29:03;;;;;;;43.45;40.33;;;;;;;22.89;100.00;102275.06;1972138;73;31458;-73
2021/09/06 14:34:27;;;;;;;44.65;41.45;;;;;;;22.88;100.00;102271.16;1972071;73;31096;-82
2021/09/06 14:39:54;;;;;;;44.27;41.33;;;;;;;22.87;100.00;102270.91;1972155;73;31461;-79
2021/09/06 14:45:19;;;;;;;42.75;39.85;;;;;;;22.86;100.00;102267.81;1971984;73;30976;-72
2021/09/06 14:50:45;;;;;;;43.23;40.33;;;;;;;22.87;100.00;102259.57;1972156;73;30960;-78
2021/09/06 14:56:13;;;;;;;42.58;39.53;;;;;;;22.82;100.00;102266.82;1972110;73;31000;-82
2021/09/06 15:01:37;;;;;;;40.67;37.60;;;;;;;23.09;100.00;102260.80;1972031;73;31043;-81
2021/09/06 15:07:03;;;;;;;43.30;40.60;;;;;;;22.95;100.00;102258.14;1971984;73;30966;-79
2021/09/06 15:12:28;;;;;;;43.42;40.73;;;;;;;22.95;100.00;102251.64;1972150;73;31475;-79
2021/09/06 15:17:52;;;;;;;40.83;38.33;;;;;;;22.84;100.00;102243.25;1972230;73;31546;-79
2021/09/06 15:23:17;;;;;;;40.88;38.38;;;;;;;22.81;100.00;102237.64;1937147;74;31149;-74
2021/09/06 15:28:41;;;;;;;40.55;38.15;;;;;;;22.84;100.00;102231.33;1971951;73;31031;-73
2021/09/06 15:34:22;;;;;;;37.90;35.60;;;;;;;23.03;100.00;102233.78;1972274;73;31510;-75
2021/09/06 15:40:01;;;;;;;37.67;35.30;;;;;;;23.90;100.00;102235.18;1971981;73;31003;-78
2021/09/06 15:45:36;;;;;;;35.52;33.13;;;;;;;24.26;100.00;102226.95;1977982;72;31401;-80
2021/09/06 15:51:03;;;;;;;33.00;31.05;;;;;;;24.59;100.00;102226.22;1972587;73;31033;-84
2021/09/06 15:56:28;;;;;;;32.25;30.45;;;;;;;24.93;100.00;102215.39;1972219;73;31559;-74
2021/09/06 16:01:52;;;;;;;33.70;31.60;;;;;;;25.09;100.00;102211.28;1972151;73;31522;-77
2021/09/06 16:07:19;;;;;;;34.85;32.60;;;;;;;24.93;100.00;102210.30;1972101;73;31908;-73
2021/09/06 16:12:45;;;;;;;35.25;33.25;;;;;;;24.50;100.00;102216.34;1972135;73;30936;-75
2021/09/06 16:18:12;;;;;;;35.23;33.23;;;;;;;24.35;100.00;102221.20;1971992;73;31525;-74
2021/09/06 16:23:43;;;;;;;35.40;33.40;;;;;;;24.79;100.00;102210.56;1972266;73;31510;-76
2021/09/06 16:29:08;;;;;;;35.28;33.08;;;;;;;24.87;100.00;102203.16;1971908;73;30957;-80
2021/09/06 16:34:35;;;;;;;35.80;33.40;;;;;;;25.01;100.00;102201.42;1972126;73;31475;-73
2021/09/06 16:39:59;;;;;;;38.50;36.00;;;;;;;24.36;100.00;102196.73;1972144;72;31446;-73
2021/09/06 16:45:24;;;;;;;36.98;34.65;;;;;;;24.09;100.00;102193.58;1972143;73;31015;-77
2021/09/06 16:50:49;;;;;;;39.70;37.23;;;;;;;23.94;100.00;102202.09;1971966;73;31049;-77
2021/09/06 16:56:37;;;;;;;38.80;36.48;;;;;;;23.83;100.00;102196.58;2016412;71;31345;-74
2021/09/06 17:02:01;;;;;;;38.33;36.03;;;;;;;23.74;100.00;102201.47;1972151;73;31659;-73
2021/09/06 17:07:26;;;;;;;38.67;36.38;;;;;;;23.76;100.00;102194.84;1971779;73;30952;-75
2021/09/06 17:12:50;;;;;;;38.67;36.38;;;;;;;23.73;100.00;102184.19;1971712;73;30952;-76
2021/09/06 17:18:14;;;;;;;39.30;36.90;;;;;;;23.86;100.00;102199.56;1971848;73;30962;-71
2021/09/06 17:23:40;;;;;;;42.78;40.23;;;;;;;24.08;100.00;102204.10;1971966;73;30998;-72
2021/09/06 17:29:23;;;;;;;43.00;40.33;;;;;;;24.02;100.00;102209.14;2016057;71;30958;-72
2021/09/06 17:34:50;;;;;;;41.90;39.40;;;;;;;23.97;100.00;102212.75;1971813;73;31034;-70
2021/09/06 17:40:21;;;;;;;42.17;39.63;;;;;;;23.94;100.00;102207.19;1971707;73;31035;-73
2021/09/06 17:45:47;;;;;;;42.88;40.28;;;;;;;23.86;100.00;102196.72;1972437;73;31483;-75
2021/09/06 17:51:11;;;;;;;41.88;39.35;;;;;;;23.80;100.00;102202.92;1972038;73;31530;-73
2021/09/06 17:56:36;;;;;;;41.45;38.95;;;;;;;23.86;100.00;102197.30;1971822;73;30983;-74
2021/09/06 18:02:21;;;;;;;42.35;39.85;;;;;;;23.67;100.00;102201.16;2013103;71;30917;-74
2021/09/06 18:07:46;;;;;;;42.88;40.28;;;;;;;23.44;100.00;102204.86;1971991;73;31071;-72
2021/09/06 18:13:31;;;;;;;41.70;39.10;;;;;;;23.31;100.00;102206.72;2016364;71;30952;-74
2021/09/06 18:18:56;;;;;;;42.45;39.88;;;;;;;23.20;100.00;102201.14;1971879;73;30981;-76
2021/09/06 18:24:40;;;;;;;43.50;40.78;;;;;;;23.01;100.00;102215.72;2016163;71;31368;-75
2021/09/06 18:30:24;;;;;;;46.42;43.42;;;;;;;23.05;100.00;102217.29;2015879;71;30891;-75
2021/09/06 18:35:48;;;;;;;47.45;44.45;;;;;;;23.03;100.00;102214.78;1972224;73;31053;-75
2021/09/06 18:41:33;;;;;;;47.08;44.08;;;;;;;23.05;100.00;102214.45;2016100;71;31410;-75
2021/09/06 18:47:05;;;;;;;47.50;44.50;;;;;;;23.01;100.00;102209.22;1971753;73;31209;-74
2021/09/06 18:52:49;;;;;;;50.73;47.35;;;;;;;22.42;100.00;102219.40;2013911;71;30981;-78
2021/09/06 18:58:14;;;;;;;49.18;45.92;;;;;;;22.17;100.00;102232.34;1971759;73;30990;-72
2021/09/06 19:03:38;;;;;;;52.15;48.52;;;;;;;21.99;100.00;102238.53;1971758;73;31061;-73
2021/09/06 19:09:04;;;;;;;50.15;46.77;;;;;;;21.61;100.00;102245.28;1971908;73;31491;-73
2021/09/06 19:14:35;;;;;;;48.48;45.12;;;;;;;21.34;100.00;102263.30;1971914;73;30962;-74
2021/09/06 19:20:00;;;;;;;49.27;45.88;;;;;;;21.48;100.00;102273.69;1972385;73;31466;-75
2021/09/06 19:25:25;;;;;;;47.80;44.50;;;;;;;21.47;100.00;102279.92;1972439;73;31488;-75
2021/09/06 19:30:50;;;;;;;50.10;46.48;;;;;;;21.55;100.00;102281.11;1972373;73;31069;-75
2021/09/06 19:36:15;;;;;;;48.55;45.23;;;;;;;21.46;100.00;102282.48;1972004;73;31582;-79
2021/09/06 19:41:39;;;;;;;49.10;45.70;;;;;;;21.22;100.00;102289.08;1971919;73;31451;-78
2021/09/06 19:47:04;;;;;;;51.98;48.40;;;;;;;20.98;100.00;102298.41;1971887;73;31484;-77
2021/09/06 19:52:29;;;;;;;52.95;48.85;;;;;;;21.01;100.00;102295.77;1971796;73;31114;-71
2021/09/06 19:57:54;;;;;;;52.43;48.80;;;;;;;21.02;100.00;102300.27;1971701;73;31053;-74
2021/09/06 20:03:18;;;;;;;54.45;50.48;;;;;;;20.87;100.00;102318.45;1971929;73;31112;-76
2021/09/06 20:09:05;;;;;;;53.25;49.30;;;;;;;20.93;100.00;102315.47;2008391;71;30883;-76
2021/09/06 20:14:32;;;;;;;54.53;50.63;;;;;;;20.89;100.00;102323.76;1972426;73;31034;-74
2021/09/06 20:19:57;;;;;;;52.23;48.52;;;;;;;20.94;100.00;102319.41;1972307;73;30961;-75
2021/09/06 20:25:22;;;;;;;55.30;51.17;;;;;;;20.83;100.00;102327.30;1972044;73;31488;-75
2021/09/06 20:30:47;;;;;;;51.23;47.73;;;;;;;20.86;100.00;102322.42;1972227;73;31017;-74
2021/09/06 20:36:12;;;;;;;52.65;48.80;;;;;;;20.70;100.00;102325.92;1972258;73;31538;-74
2021/09/06 20:41:38;;;;;;;54.10;49.97;;;;;;;20.59;100.00;102320.23;1950687;73;30986;-74
2021/09/06 20:47:02;;;;;;;55.17;51.20;;;;;;;20.32;100.00;102319.73;1971991;73;31548;-80
2021/09/06 20:52:27;;;;;;;52.57;48.80;;;;;;;19.92;100.00;102329.84;1971791;73;31045;-79
2021/09/06 20:57:52;;;;;;;51.40;47.67;;;;;;;19.97;100.00;102332.56;1972345;73;31132;-75
2021/09/06 21:03:17;;;;;;;50.67;46.93;;;;;;;20.05;100.00;102334.66;1971925;73;31517;-75
2021/09/06 21:08:41;;;;;;;48.73;45.33;;;;;;;19.87;100.00;102332.76;1972307;73;31035;-74
2021/09/06 21:14:06;;;;;;;52.60;48.80;;;;;;;19.61;100.00;102327.33;1972521;73;31448;-74
2021/09/06 21:19:31;;;;;;;52.13;48.40;;;;;;;19.41;100.00;102325.70;1972587;73;30941;-75
2021/09/06 21:24:56;;;;;;;53.50;49.30;;;;;;;19.37;100.00;102324.09;1941405;74;31042;-74
2021/09/06 21:30:21;;;;;;;53.93;50.10;;;;;;;19.48;100.00;102321.36;1972165;72;31052;-74
2021/09/06 21:35:45;;;;;;;53.50;49.60;;;;;;;19.40;100.00;102325.44;1972195;73;31029;-74
2021/09/06 21:41:10;;;;;;;53.43;49.63;;;;;;;19.45;100.00;102321.16;1971752;73;30952;-76
2021/09/06 21:46:35;;;;;;;54.13;50.03;;;;;;;19.46;100.00;102332.13;1971986;73;31464;-76
2021/09/06 21:52:01;;;;;;;53.70;49.30;;;;;;;19.44;100.00;102330.17;1971722;73;31124;-76
2021/09/06 21:57:25;;;;;;;52.93;49.13;;;;;;;19.66;100.00;102320.20;1972036;73;31410;-76
2021/09/06 22:02:52;;;;;;;53.60;49.57;;;;;;;19.81;100.00;102323.55;1971782;73;31025;-77
2021/09/06 22:08:17;;;;;;;55.93;51.60;;;;;;;19.77;100.00;102312.63;1971643;73;31192;-77
2021/09/06 22:13:42;;;;;;;54.00;49.70;;;;;;;19.69;100.00;102313.36;1971850;73;31144;-78
2021/09/06 22:19:06;;;;;;;55.30;50.77;;;;;;;19.52;100.00;102318.75;1971854;72;31009;-77
2021/09/06 22:24:31;;;;;;;54.53;50.43;;;;;;;19.49;100.00;102315.16;1971820;73;31075;-77
2021/09/06 22:29:56;;;;;;;55.10;50.70;;;;;;;19.27;100.00;102324.25;1971996;73;31534;-77
2021/09/06 22:35:21;;;;;;;54.33;50.33;;;;;;;19.33;100.00;102319.38;1972164;73;31061;-74
2021/09/06 22:40:46;;;;;;;54.20;50.00;;;;;;;19.15;100.00;102313.20;1972371;71;31573;-74
2021/09/06 22:46:10;;;;;;;52.10;48.27;;;;;;;18.97;100.00;102311.52;1971804;73;30958;-77
2021/09/06 22:51:35;;;;;;;52.57;48.53;;;;;;;18.80;100.00;102318.83;1972164;73;30961;-74
2021/09/06 22:57:00;;;;;;;49.23;45.73;;;;;;;18.73;100.00;102319.23;1971897;73;31505;-76
2021/09/06 23:02:24;;;;;;;50.73;46.93;;;;;;;18.76;100.00;102312.14;1972379;73;31466;-74
2021/09/06 23:07:49;;;;;;;49.03;45.37;;;;;;;18.39;100.00;102319.41;1972161;73;31010;-74
2021/09/06 23:13:13;;;;;;;50.67;47.03;;;;;;;18.53;100.00;102319.50;1971728;73;31037;-78
2021/09/06 23:18:38;;;;;;;49.77;46.17;;;;;;;18.46;100.00;102317.61;1972001;73;31543;-76
2021/09/06 23:24:02;;;;;;;50.03;46.53;;;;;;;18.43;100.00;102312.03;1971914;73;31036;-77
2021/09/06 23:29:26;;;;;;;48.77;45.27;;;;;;;18.36;100.00;102312.12;1971896;73;31446;-77
2021/09/06 23:34:57;;;;;;;50.83;47.17;;;;;;;18.52;100.00;102313.06;1971899;73;31070;-77
2021/09/06 23:40:21;;;;;;;53.43;49.30;;;;;;;18.30;100.00;102313.34;1965499;73;31030;-73
2021/09/06 23:45:46;;;;;;;50.47;46.63;;;;;;;18.35;100.00;102323.12;1971750;73;31035;-77
2021/09/06 23:51:10;;;;;;;53.67;49.33;;;;;;;18.43;100.00;102321.04;1972366;73;31445;-75
2021/09/06 23:56:35;;;;;;;52.43;48.57;;;;;;;18.24;100.00;102322.97;1972147;73;31024;-74
